Wednesday, June 20, 2018, 10:38 PM GMT
Back to Local

CWNH, Riviere Du Loup, Que.

Location: , , Canada Lat: 47.8
Local Time: 10:38 PM GMT (22:38 GMT) Lon: -69.55
Time Zone: GMT Elev: 485 ft

Show me the last for .
Show Coded

Time T Td Feel RH Dir Speed Gust Alt SLP Vis Weather Sky Remarks
2018-06-20 22:00 67 50 - 54 260° 3 - - 29.57 0 None
2018-06-20 21:00 71 53 76 53 230° 8 - - 29.57 0 Peak wind: 20 mph (18 kts) from 210° at 12 min
2018-06-20 20:00 68 54 - 60 220° 10 21 - 29.58 0 Peak wind: 23 mph (20 kts) from 220° at 11 min
2018-06-20 19:00 71 53 76 53 220° 9 17 - 29.57 0 Peak wind: 19 mph (17 kts) from 210° at 05 min
2018-06-20 18:00 68 53 - 60 230° 9 18 - 29.59 0 Peak wind: 20 mph (18 kts) from 240° at 22 min
2018-06-20 17:00 67 54 - 61 230° 9 - - 29.59 0 Peak wind: 20 mph (18 kts) from 230° at 06 min
2018-06-20 16:00 61 53 - 72 210° 10 18 - 29.60 0 Peak wind: 23 mph (20 kts) from 210° at 48 min
2018-06-20 15:00 61 52 - 72 220° 10 18 - 29.61 0 Peak wind: 25 mph (22 kts) from 240° at 33 min
2018-06-20 14:00 61 51 - 69 220° 8 - - 29.63 0 Peak wind: 19 mph (17 kts) from 240° at 08 min
2018-06-20 13:00 62 49 - 63 210° 7 - - 29.64 0 None
2018-06-20 12:00 61 49 - 64 200° 8 - - 29.66 0 Peak wind: 20 mph (18 kts) from 190° at 42 min
2018-06-20 11:00 60 48 - 65 210° 9 18 - 29.67 0 None
2018-06-20 10:00 60 47 - 62 200° 8 - - 29.68 0 None
2018-06-20 09:00 55 46 - 70 190° 6 - - 29.69 0 None
2018-06-20 08:00 57 46 - 64 190° 6 - - 29.70 0 None
2018-06-20 07:00 55 45 - 69 190° 7 - - 29.72 0 None
2018-06-20 06:00 57 44 - 62 200° 5 - - 29.74 0 None
2018-06-20 05:00 60 43 - 53 210° 5 - - 29.74 0 None
2018-06-20 04:00 60 42 - 51 230° 3 - - 29.75 0 None
2018-06-20 03:00 58 43 - 57 230° 5 - - 29.75 0 None
2018-06-20 02:00 60 43 - 53 250° 3 - - 29.75 0 None
2018-06-20 01:00 58 44 - 57 300° 1 - - 29.75 0 None
2018-06-20 00:00 65 41 - 41 280° 3 - - 29.73 0 None
2018-06-19 23:00 66 42 - 40 280° 3 - - 29.72 0 None

Support USWX by starting your Amazon purchase here.